createdAt,value
2022-12-24T00:00:07.516Z,73.13
2022-12-24T00:02:35.054Z,73.13
2022-12-24T00:05:02.526Z,73.15
2022-12-24T00:07:30.169Z,73.20
2022-12-24T00:09:57.582Z,73.31
2022-12-24T00:12:25.661Z,73.09
2022-12-24T00:14:54.400Z,73.01
2022-12-24T00:17:21.824Z,73.19
2022-12-24T00:19:49.258Z,73.05
2022-12-24T00:22:16.682Z,72.94
2022-12-24T00:24:44.087Z,73.12
2022-12-24T00:27:11.528Z,73.10
2022-12-24T00:29:38.991Z,72.99
2022-12-24T00:32:10.049Z,73.03
2022-12-24T00:34:37.467Z,73.02
2022-12-24T00:37:04.966Z,73.17
2022-12-24T00:39:32.439Z,72.92
2022-12-24T00:41:59.867Z,73.13
2022-12-24T00:44:27.279Z,73.15
2022-12-24T00:46:54.700Z,73.29
2022-12-24T00:49:23.629Z,73.40
2022-12-24T00:51:51.217Z,73.15
2022-12-24T00:54:18.638Z,73.31
2022-12-24T00:56:46.053Z,73.34
2022-12-24T00:59:13.480Z,73.04
2022-12-24T01:01:40.992Z,73.10
2022-12-24T01:04:26.182Z,73.09
2022-12-24T01:06:55.932Z,73.30
2022-12-24T01:09:23.341Z,73.31
2022-12-24T01:11:50.782Z,72.94
2022-12-24T01:14:18.179Z,72.60
2022-12-24T01:16:45.615Z,72.68
2022-12-24T01:19:13.031Z,72.63
2022-12-24T01:21:40.427Z,72.98
2022-12-24T01:24:11.635Z,72.84
2022-12-24T01:26:39.033Z,73.03
2022-12-24T01:29:06.435Z,72.84
2022-12-24T01:31:33.872Z,72.88
2022-12-24T01:34:01.347Z,72.97
2022-12-24T01:36:28.850Z,73.19
2022-12-24T01:38:56.293Z,75.01
2022-12-24T01:41:42.938Z,74.41
2022-12-24T01:44:21.052Z,74.48
2022-12-24T01:46:48.618Z,73.93
2022-12-24T01:49:16.043Z,73.45
2022-12-24T01:51:44.953Z,73.40
2022-12-24T01:54:14.081Z,73.63
2022-12-24T01:56:45.671Z,74.34
2022-12-24T01:59:14.090Z,73.94
2022-12-24T02:01:41.638Z,74.00
2022-12-24T02:04:12.971Z,73.72
2022-12-24T02:06:40.393Z,73.55
2022-12-24T02:09:08.094Z,73.44
2022-12-24T02:11:35.543Z,73.38
2022-12-24T02:14:04.270Z,73.45
2022-12-24T02:16:37.043Z,73.49
2022-12-24T02:19:11.210Z,73.93
2022-12-24T02:21:49.188Z,73.58
2022-12-24T02:24:45.546Z,73.39
2022-12-24T02:27:18.384Z,73.53
2022-12-24T02:30:08.457Z,73.29
2022-12-24T02:32:40.794Z,73.54
2022-12-24T02:35:10.796Z,73.44
2022-12-24T02:37:38.851Z,73.50
2022-12-24T02:40:16.043Z,74.03
2022-12-24T02:42:45.367Z,74.05
2022-12-24T02:45:15.351Z,73.72
2022-12-24T02:47:42.788Z,73.79
2022-12-24T02:50:11.463Z,73.58
2022-12-24T02:52:39.745Z,73.51
2022-12-24T02:55:08.966Z,73.88
2022-12-24T02:57:45.436Z,73.61
2022-12-24T03:00:14.887Z,73.58
2022-12-24T03:02:50.149Z,73.76
2022-12-24T03:05:21.124Z,73.76
2022-12-24T03:07:53.954Z,73.79
2022-12-24T03:10:22.989Z,73.54
2022-12-24T03:12:51.400Z,73.70
2022-12-24T03:15:22.843Z,73.46
2022-12-24T03:17:50.588Z,73.64
2022-12-24T03:20:20.357Z,73.81
2022-12-24T03:22:47.794Z,73.73
2022-12-24T03:25:15.212Z,73.75
2022-12-24T03:27:42.620Z,73.88
2022-12-24T03:30:12.027Z,73.64
2022-12-24T03:32:40.729Z,74.01
2022-12-24T03:35:08.798Z,73.42
2022-12-24T03:37:36.237Z,73.84
2022-12-24T03:40:03.778Z,73.69
2022-12-24T03:42:31.184Z,73.73
2022-12-24T03:44:58.605Z,73.60
2022-12-24T03:47:26.009Z,73.48
2022-12-24T03:49:54.710Z,73.65
2022-12-24T03:52:22.122Z,73.74
2022-12-24T03:54:49.530Z,73.71
2022-12-24T03:57:16.990Z,73.66
2022-12-24T03:59:44.447Z,73.70
2022-12-24T04:02:12.030Z,73.57
2022-12-24T04:04:39.587Z,73.37
2022-12-24T04:07:08.325Z,73.37
2022-12-24T04:09:35.778Z,73.83
2022-12-24T04:12:03.188Z,73.79
2022-12-24T04:14:30.603Z,73.68
2022-12-24T04:16:58.076Z,73.90
2022-12-24T04:19:25.520Z,74.19
2022-12-24T04:21:52.925Z,74.10
2022-12-24T04:24:21.653Z,73.66
2022-12-24T04:26:49.069Z,73.62
2022-12-24T04:29:16.471Z,73.96
2022-12-24T04:31:43.897Z,73.80
2022-12-24T04:34:11.350Z,73.86
2022-12-24T04:36:39.043Z,74.03
2022-12-24T04:39:06.437Z,73.54
2022-12-24T04:41:35.126Z,73.40
2022-12-24T04:44:02.531Z,73.71
2022-12-24T04:46:31.246Z,73.78
2022-12-24T04:48:58.841Z,73.49
2022-12-24T04:51:26.531Z,73.78
2022-12-24T04:53:54.070Z,73.61
2022-12-24T04:56:22.357Z,73.93
2022-12-24T04:58:51.074Z,73.78
2022-12-24T05:01:19.743Z,73.50
2022-12-24T05:03:47.368Z,73.97
2022-12-24T05:06:15.667Z,73.68
2022-12-24T05:08:43.580Z,73.70
2022-12-24T05:11:14.182Z,73.75
2022-12-24T05:13:46.576Z,73.58
2022-12-24T05:16:16.205Z,73.80
2022-12-24T05:18:43.644Z,73.80
2022-12-24T05:21:11.109Z,73.83
2022-12-24T05:23:56.059Z,73.60
2022-12-24T05:26:28.079Z,73.53
2022-12-24T05:28:56.189Z,73.74
2022-12-24T05:31:25.653Z,73.74
2022-12-24T05:33:54.623Z,73.79
2022-12-24T05:36:22.161Z,73.75
2022-12-24T05:38:49.648Z,73.70
2022-12-24T05:41:17.076Z,73.43
2022-12-24T05:43:44.540Z,73.28
2022-12-24T05:46:13.126Z,74.45
2022-12-24T05:48:41.945Z,75.13
2022-12-24T05:51:10.894Z,75.17
2022-12-24T05:53:38.340Z,75.20
2022-12-24T05:56:06.250Z,75.24
2022-12-24T05:58:33.708Z,75.42
2022-12-24T06:01:01.927Z,75.18
2022-12-24T06:03:29.678Z,75.14
2022-12-24T06:06:02.143Z,74.95
2022-12-24T06:08:29.715Z,74.88
2022-12-24T06:10:57.871Z,74.43
2022-12-24T06:13:25.479Z,74.68
2022-12-24T06:15:55.022Z,74.59
2022-12-24T06:18:22.487Z,74.55
2022-12-24T06:20:51.721Z,74.29
2022-12-24T06:23:20.515Z,74.23
2022-12-24T06:25:48.144Z,74.28
2022-12-24T06:28:15.591Z,74.32
2022-12-24T06:30:43.355Z,74.44
2022-12-24T06:33:10.780Z,74.25
2022-12-24T06:35:38.208Z,73.98
2022-12-24T06:38:05.644Z,74.03
2022-12-24T06:40:34.341Z,74.18
2022-12-24T06:43:01.771Z,74.02
2022-12-24T06:45:29.189Z,73.67
2022-12-24T06:47:56.631Z,73.92
2022-12-24T06:50:24.024Z,73.83
2022-12-24T06:52:51.423Z,74.21
2022-12-24T06:55:18.889Z,73.68
2022-12-24T06:57:47.574Z,74.14
2022-12-24T07:00:15.519Z,73.56
2022-12-24T07:02:43.030Z,73.95
2022-12-24T07:05:10.935Z,74.01
2022-12-24T07:07:38.563Z,74.26
2022-12-24T07:10:07.096Z,74.61
2022-12-24T07:12:34.546Z,74.94
2022-12-24T07:15:03.312Z,74.99
2022-12-24T07:17:30.819Z,74.04
2022-12-24T07:19:58.287Z,74.36
2022-12-24T07:22:25.712Z,74.62
2022-12-24T07:24:53.128Z,74.40
2022-12-24T07:27:20.989Z,74.35
2022-12-24T07:29:48.452Z,74.20
2022-12-24T07:32:17.241Z,73.63
2022-12-24T07:34:44.648Z,73.54
2022-12-24T07:37:12.099Z,73.56
2022-12-24T07:39:39.534Z,73.69
2022-12-24T07:42:07.969Z,73.76
2022-12-24T07:44:36.599Z,73.60
2022-12-24T07:47:04.075Z,73.65
2022-12-24T07:49:49.789Z,74.13
2022-12-24T07:52:17.242Z,73.82
2022-12-24T07:54:44.672Z,73.85
2022-12-24T07:57:12.097Z,73.67
2022-12-24T07:59:39.686Z,73.52
2022-12-24T08:02:09.910Z,73.39
2022-12-24T08:04:41.855Z,73.64
2022-12-24T08:07:10.715Z,73.51
2022-12-24T08:09:39.689Z,73.40
2022-12-24T08:12:07.485Z,73.31
2022-12-24T08:14:35.569Z,73.39
2022-12-24T08:17:03.062Z,73.65
2022-12-24T08:19:30.479Z,73.17
2022-12-24T08:21:57.927Z,73.89
2022-12-24T08:24:26.807Z,73.31
2022-12-24T08:26:54.227Z,73.45
2022-12-24T08:29:21.666Z,73.88
2022-12-24T08:31:49.228Z,73.32
2022-12-24T08:34:16.656Z,73.60
2022-12-24T08:36:44.079Z,73.74
2022-12-24T08:39:11.510Z,73.57
2022-12-24T08:41:40.235Z,73.57
2022-12-24T08:44:07.636Z,73.39
2022-12-24T08:46:35.120Z,73.55
2022-12-24T08:49:02.543Z,73.54
2022-12-24T08:51:29.982Z,73.52
2022-12-24T08:53:57.420Z,73.41
2022-12-24T08:56:25.050Z,73.69
2022-12-24T08:58:53.817Z,73.36
2022-12-24T09:01:21.482Z,73.36
2022-12-24T09:03:49.063Z,76.90
2022-12-24T09:06:16.729Z,76.72
2022-12-24T09:08:44.324Z,76.39
2022-12-24T09:11:12.525Z,76.63
2022-12-24T09:13:39.989Z,76.95
2022-12-24T09:16:09.237Z,76.44
2022-12-24T09:18:36.868Z,76.61
2022-12-24T09:21:06.705Z,76.98
2022-12-24T09:23:35.828Z,76.50
2022-12-24T09:26:05.765Z,76.67
2022-12-24T09:28:33.189Z,76.68
2022-12-24T09:31:01.384Z,76.26
2022-12-24T09:33:30.891Z,76.35
2022-12-24T09:35:58.359Z,76.31
2022-12-24T09:38:25.845Z,76.43
2022-12-24T09:40:53.323Z,76.29
2022-12-24T09:43:22.330Z,76.25
2022-12-24T09:45:53.585Z,76.00
2022-12-24T09:48:23.995Z,76.03
2022-12-24T09:50:54.233Z,76.02
2022-12-24T09:53:23.273Z,75.80
2022-12-24T09:55:52.101Z,75.92
2022-12-24T09:58:22.521Z,75.88
2022-12-24T10:00:50.519Z,75.76
2022-12-24T10:03:18.170Z,75.64
2022-12-24T10:05:48.468Z,75.73
2022-12-24T10:08:22.717Z,75.61
2022-12-24T10:10:52.265Z,75.20
2022-12-24T10:13:25.087Z,75.48
2022-12-24T10:15:55.436Z,74.88
2022-12-24T10:18:27.765Z,75.02
2022-12-24T10:20:58.119Z,75.13
2022-12-24T10:23:29.699Z,75.04
2022-12-24T10:26:14.321Z,74.85
2022-12-24T10:28:45.014Z,74.70
2022-12-24T10:31:12.827Z,75.00
2022-12-24T10:33:42.472Z,74.62
2022-12-24T10:36:12.426Z,74.56
2022-12-24T10:38:41.345Z,74.67
2022-12-24T10:41:09.136Z,74.57
2022-12-24T10:43:36.839Z,74.54
2022-12-24T10:46:05.887Z,74.93
2022-12-24T10:48:34.820Z,65.71
2022-12-24T10:51:04.527Z,63.35
2022-12-24T10:53:39.249Z,66.21
2022-12-24T10:56:09.289Z,65.84
2022-12-24T10:58:36.694Z,64.69
2022-12-24T11:01:05.165Z,64.48
2022-12-24T11:03:33.676Z,61.16
2022-12-24T11:06:08.689Z,63.36
2022-12-24T11:08:36.587Z,62.35
2022-12-24T11:11:05.321Z,61.30
2022-12-24T11:13:38.497Z,60.68
2022-12-24T11:16:07.562Z,60.69
2022-12-24T11:18:35.925Z,60.80
2022-12-24T11:21:03.395Z,60.92
2022-12-24T11:23:30.831Z,61.19
2022-12-24T11:25:58.286Z,61.46
2022-12-24T11:28:26.589Z,61.88
2022-12-24T11:31:03.292Z,62.29
2022-12-24T11:33:31.333Z,62.63
2022-12-24T11:36:05.069Z,62.62
2022-12-24T11:38:33.246Z,62.79
2022-12-24T11:41:05.918Z,63.27
2022-12-24T11:43:45.144Z,63.54
2022-12-24T11:46:19.407Z,63.73
2022-12-24T11:48:47.044Z,63.83
2022-12-24T11:51:22.624Z,64.07
2022-12-24T11:53:51.451Z,64.07
2022-12-24T11:56:26.370Z,64.27
2022-12-24T11:58:56.050Z,64.43
2022-12-24T12:01:25.571Z,64.54
2022-12-24T12:03:54.628Z,64.61
2022-12-24T12:06:27.139Z,64.71
2022-12-24T12:08:56.882Z,65.03
2022-12-24T12:11:24.292Z,65.04
2022-12-24T12:13:51.711Z,65.29
2022-12-24T12:16:21.734Z,65.20
2022-12-24T12:18:53.905Z,65.41
2022-12-24T12:21:22.157Z,65.39
2022-12-24T12:23:51.059Z,65.37
2022-12-24T12:26:19.949Z,65.54
2022-12-24T12:28:50.203Z,65.75
2022-12-24T12:31:20.208Z,65.77
2022-12-24T12:33:48.659Z,65.94
2022-12-24T12:36:18.784Z,66.15
2022-12-24T12:38:46.203Z,65.89
2022-12-24T12:41:24.843Z,66.02
2022-12-24T12:44:01.684Z,66.05
2022-12-24T12:46:33.145Z,66.10
2022-12-24T12:49:16.460Z,66.42
2022-12-24T12:51:47.674Z,66.40
2022-12-24T12:54:32.676Z,66.36
2022-12-24T12:57:03.593Z,66.62
2022-12-24T12:59:34.774Z,66.43
2022-12-24T13:02:04.726Z,66.65
2022-12-24T13:05:00.228Z,66.84
2022-12-24T13:07:55.913Z,66.62
2022-12-24T13:10:36.509Z,66.73
2022-12-24T13:13:21.627Z,66.65
2022-12-24T13:15:58.653Z,66.78
2022-12-24T13:18:38.839Z,66.73
2022-12-24T13:21:06.237Z,66.85
2022-12-24T13:23:35.084Z,67.00
2022-12-24T13:26:03.318Z,67.02
2022-12-24T13:28:35.168Z,66.86
2022-12-24T13:31:29.615Z,66.98
2022-12-24T13:34:03.501Z,66.96
2022-12-24T13:37:01.469Z,66.92
2022-12-24T13:39:30.159Z,67.11
2022-12-24T13:41:57.741Z,66.97
2022-12-24T13:44:32.491Z,67.29
2022-12-24T13:47:03.217Z,67.16
2022-12-24T13:49:32.955Z,67.23
2022-12-24T13:52:18.603Z,67.49
2022-12-24T13:54:50.070Z,67.52
2022-12-24T13:57:35.113Z,67.25
2022-12-24T14:00:04.934Z,67.45
2022-12-24T14:02:40.410Z,67.39
2022-12-24T14:05:09.652Z,67.63
2022-12-24T14:07:37.215Z,67.59
2022-12-24T14:10:07.226Z,67.29
2022-12-24T14:12:47.578Z,67.39
2022-12-24T14:16:06.791Z,67.50
2022-12-24T14:18:36.426Z,67.58
2022-12-24T14:21:03.844Z,67.51
2022-12-24T14:23:52.284Z,67.64
2022-12-24T14:26:22.957Z,67.38
2022-12-24T14:28:54.919Z,67.68
2022-12-24T14:31:22.401Z,67.41
2022-12-24T14:33:49.848Z,67.61
2022-12-24T14:36:20.975Z,67.62
2022-12-24T14:38:48.393Z,67.73
2022-12-24T14:41:36.725Z,67.75
2022-12-24T14:44:09.505Z,67.90
2022-12-24T14:46:40.809Z,67.68
2022-12-24T14:49:12.497Z,67.76
2022-12-24T14:51:42.287Z,67.78
2022-12-24T14:54:24.758Z,67.62
2022-12-24T14:57:15.298Z,67.73
2022-12-24T14:59:44.601Z,67.80
2022-12-24T15:02:23.838Z,67.87
2022-12-24T15:05:04.502Z,67.71
2022-12-24T15:07:31.951Z,67.85
2022-12-24T15:09:59.344Z,67.80
2022-12-24T15:12:28.032Z,67.83
2022-12-24T15:14:55.454Z,68.06
2022-12-24T15:17:22.856Z,67.89
2022-12-24T15:19:52.490Z,67.75
2022-12-24T15:22:22.862Z,68.10
2022-12-24T15:24:50.268Z,68.03
2022-12-24T15:27:18.360Z,67.82
2022-12-24T15:29:48.416Z,68.00
2022-12-24T15:32:18.174Z,67.74
2022-12-24T15:34:46.472Z,67.96
2022-12-24T15:37:16.158Z,68.12
2022-12-24T15:39:43.569Z,68.07
2022-12-24T15:42:18.492Z,67.84
2022-12-24T15:44:50.360Z,67.90
2022-12-24T15:47:18.936Z,68.05
2022-12-24T15:49:47.835Z,67.74
2022-12-24T15:52:16.180Z,68.09
2022-12-24T15:54:44.750Z,67.94
2022-12-24T15:57:16.065Z,67.97
2022-12-24T15:59:43.486Z,68.08
2022-12-24T16:02:35.553Z,68.03
2022-12-24T16:05:32.478Z,67.93
2022-12-24T16:08:10.391Z,68.18
2022-12-24T16:10:39.978Z,68.04
2022-12-24T16:13:15.082Z,67.95
2022-12-24T16:15:45.928Z,67.88
2022-12-24T16:18:18.479Z,67.92
2022-12-24T16:20:49.592Z,68.23
2022-12-24T16:23:18.693Z,67.98
2022-12-24T16:25:46.096Z,68.19
2022-12-24T16:28:20.240Z,67.94
2022-12-24T16:30:49.751Z,68.18
2022-12-24T16:33:19.197Z,68.06
2022-12-24T16:35:46.874Z,68.26
2022-12-24T16:38:14.431Z,68.02
2022-12-24T16:40:41.839Z,68.05
2022-12-24T16:43:26.869Z,68.22
2022-12-24T16:45:54.435Z,68.00
2022-12-24T16:48:23.769Z,68.07
2022-12-24T16:50:51.709Z,68.43
2022-12-24T16:53:19.702Z,68.13
2022-12-24T16:55:47.644Z,68.01
2022-12-24T16:58:15.882Z,68.11
2022-12-24T17:00:43.293Z,68.15
2022-12-24T17:03:10.794Z,68.25
2022-12-24T17:05:39.764Z,68.07
2022-12-24T17:08:07.317Z,68.29
2022-12-24T17:10:34.882Z,68.24
2022-12-24T17:13:02.343Z,68.09
2022-12-24T17:15:29.941Z,68.24
2022-12-24T17:17:57.445Z,67.90
2022-12-24T17:20:24.991Z,68.03
2022-12-24T17:22:53.829Z,67.99
2022-12-24T17:25:21.481Z,68.08
2022-12-24T17:27:48.917Z,67.82
2022-12-24T17:30:17.214Z,68.21
2022-12-24T17:32:44.733Z,68.07
2022-12-24T17:35:12.154Z,68.24
2022-12-24T17:37:39.674Z,68.11
2022-12-24T17:40:10.189Z,68.30
2022-12-24T17:42:37.643Z,68.10
2022-12-24T17:45:05.944Z,68.03
2022-12-24T17:47:33.401Z,68.19
2022-12-24T17:50:00.851Z,68.17
2022-12-24T17:52:28.294Z,68.13
2022-12-24T17:54:55.774Z,68.26
2022-12-24T17:57:24.532Z,67.86
2022-12-24T17:59:51.999Z,68.13
2022-12-24T18:02:19.555Z,68.07
2022-12-24T18:04:47.239Z,67.91
2022-12-24T18:07:14.667Z,68.06
2022-12-24T18:09:44.141Z,68.02
2022-12-24T18:12:11.577Z,68.05
2022-12-24T18:14:40.362Z,68.36
2022-12-24T18:17:07.894Z,68.17
2022-12-24T18:19:35.394Z,68.23
2022-12-24T18:22:02.848Z,68.13
2022-12-24T18:24:30.290Z,68.11
2022-12-24T18:26:57.800Z,68.26
2022-12-24T18:29:25.279Z,68.22
2022-12-24T18:31:54.115Z,68.08
2022-12-24T18:34:21.625Z,68.27
2022-12-24T18:36:54.842Z,68.05
2022-12-24T18:39:22.775Z,68.17
2022-12-24T18:41:50.466Z,68.23
2022-12-24T18:44:24.251Z,68.13
2022-12-24T18:46:54.089Z,68.29
2022-12-24T18:49:21.635Z,68.32
2022-12-24T18:51:49.088Z,68.29
2022-12-24T18:54:16.554Z,67.85
2022-12-24T18:56:44.096Z,68.01
2022-12-24T18:59:11.585Z,68.15
2022-12-24T19:01:39.210Z,68.20
2022-12-24T19:04:08.239Z,68.02
2022-12-24T19:06:35.766Z,68.09
2022-12-24T19:09:03.316Z,68.00
2022-12-24T19:11:32.504Z,68.26
2022-12-24T19:14:00.192Z,68.13
2022-12-24T19:16:27.888Z,68.24
2022-12-24T19:18:55.407Z,68.03
2022-12-24T19:21:24.288Z,68.28
2022-12-24T19:23:51.868Z,67.93
2022-12-24T19:26:20.041Z,68.21
2022-12-24T19:28:47.565Z,68.18
2022-12-24T19:31:16.498Z,68.00
2022-12-24T19:33:45.196Z,67.96
2022-12-24T19:36:15.099Z,67.98
2022-12-24T19:38:43.856Z,67.95
2022-12-24T19:41:13.168Z,68.03
2022-12-24T19:43:41.323Z,68.05
2022-12-24T19:46:09.512Z,68.11
2022-12-24T19:48:37.340Z,68.16
2022-12-24T19:51:05.735Z,68.09
2022-12-24T19:53:33.241Z,68.06
2022-12-24T19:56:02.051Z,68.25
2022-12-24T19:58:29.516Z,68.27
2022-12-24T20:00:57.061Z,67.93
2022-12-24T20:03:24.671Z,68.25
2022-12-24T20:05:52.209Z,67.98
2022-12-24T20:08:19.697Z,68.03
2022-12-24T20:10:47.174Z,67.99
2022-12-24T20:13:15.959Z,68.00
2022-12-24T20:15:45.017Z,68.20
2022-12-24T20:18:13.292Z,68.03
2022-12-24T20:20:40.809Z,67.97
2022-12-24T20:23:08.486Z,67.98
2022-12-24T20:25:36.229Z,68.01
2022-12-24T20:28:03.763Z,67.95
2022-12-24T20:30:32.713Z,67.86
2022-12-24T20:33:00.241Z,67.89
2022-12-24T20:35:27.737Z,68.21
2022-12-24T20:37:55.232Z,68.32
2022-12-24T20:40:22.703Z,68.16
2022-12-24T20:42:50.217Z,68.18
2022-12-24T20:45:17.902Z,68.04
2022-12-24T20:47:46.680Z,67.97
2022-12-24T20:50:14.153Z,68.08
2022-12-24T20:52:41.965Z,68.19
2022-12-24T20:55:09.456Z,67.97
2022-12-24T20:57:36.982Z,67.97
2022-12-24T21:00:05.261Z,67.86
2022-12-24T21:02:32.935Z,67.94
2022-12-24T21:05:02.771Z,68.05
2022-12-24T21:07:30.367Z,67.91
2022-12-24T21:09:57.774Z,68.03
2022-12-24T21:12:43.134Z,67.96
2022-12-24T21:15:11.075Z,68.21
2022-12-24T21:17:38.503Z,67.88
2022-12-24T21:20:08.516Z,68.21
2022-12-24T21:22:35.923Z,67.93
2022-12-24T21:25:03.391Z,67.82
2022-12-24T21:27:31.858Z,68.07
2022-12-24T21:29:59.317Z,68.01
2022-12-24T21:32:26.807Z,68.07
2022-12-24T21:34:54.266Z,67.97
2022-12-24T21:37:22.989Z,68.17
2022-12-24T21:39:50.671Z,67.89
2022-12-24T21:42:18.101Z,68.02
2022-12-24T21:44:45.501Z,67.97
2022-12-24T21:47:12.920Z,68.18
2022-12-24T21:49:57.866Z,68.08
2022-12-24T21:52:26.580Z,67.80
2022-12-24T21:54:53.133Z,68.04
2022-12-24T21:57:38.250Z,67.81
2022-12-24T22:00:22.605Z,68.00
2022-12-24T22:02:52.900Z,68.08
2022-12-24T22:05:20.696Z,67.99
2022-12-24T22:08:07.350Z,67.93
2022-12-24T22:10:52.427Z,67.96
2022-12-24T22:13:19.898Z,68.12
2022-12-24T22:15:48.242Z,67.94
2022-12-24T22:18:16.124Z,68.08
2022-12-24T22:20:43.966Z,68.14
2022-12-24T22:23:12.859Z,67.86
2022-12-24T22:25:40.306Z,68.19
2022-12-24T22:28:07.903Z,67.94
2022-12-24T22:30:37.396Z,67.80
2022-12-24T22:33:05.278Z,68.09
2022-12-24T22:35:32.709Z,67.79
2022-12-24T22:38:00.705Z,68.14
2022-12-24T22:40:29.658Z,67.85
2022-12-24T22:42:57.091Z,68.09
2022-12-24T22:45:24.631Z,67.92
2022-12-24T22:47:52.042Z,67.75
2022-12-24T22:50:19.520Z,67.94
2022-12-24T22:52:46.939Z,67.75
2022-12-24T22:55:14.368Z,68.00
2022-12-24T22:57:43.074Z,67.94
2022-12-24T23:00:12.105Z,68.04
2022-12-24T23:02:39.620Z,68.01
2022-12-24T23:05:07.707Z,68.09
2022-12-24T23:07:35.111Z,67.97
2022-12-24T23:10:02.569Z,67.79
2022-12-24T23:12:44.013Z,67.74
2022-12-24T23:15:12.941Z,67.86
2022-12-24T23:17:40.355Z,68.01
2022-12-24T23:20:08.851Z,67.72
2022-12-24T23:22:36.247Z,67.94
2022-12-24T23:25:03.845Z,67.76
2022-12-24T23:27:31.254Z,68.00
2022-12-24T23:29:58.846Z,67.83
2022-12-24T23:32:27.568Z,67.96
2022-12-24T23:34:54.964Z,68.09
2022-12-24T23:37:22.355Z,67.85
2022-12-24T23:39:50.035Z,67.86
2022-12-24T23:42:17.475Z,67.71
2022-12-24T23:44:44.876Z,67.83
2022-12-24T23:47:12.277Z,67.94
2022-12-24T23:49:40.958Z,67.80
2022-12-24T23:52:08.513Z,67.79
2022-12-24T23:54:35.950Z,68.04
2022-12-24T23:57:03.351Z,67.76
2022-12-24T23:59:30.743Z,68.04
